Time;durP1;ratioP1;P1;durP2;ratioP2;P2;SDS_P1;SDS_P2;PMS_P1;PMS_P2;Temp;Humidity;BMP_temperature;BMP_pressure;BME280_temperature;BME280_humidity;BME280_pressure;Samples;Min_cycle;Max_cycle;Signal;HPM_P1;HPM_P2
2021/06/22 00:01:05;;;;;;;4.60;3.97;;;16.50;99.90;;;;;;5138186;28;20160;-73
2021/06/22 00:03:31;;;;;;;4.30;3.63;;;16.40;99.90;;;;;;5140894;28;20180;-73
2021/06/22 00:05:56;;;;;;;5.00;4.10;;;16.40;99.90;;;;;;5140499;28;20448;-74
2021/06/22 00:08:22;;;;;;;4.90;3.87;;;16.40;99.90;;;;;;5137981;28;20195;-73
2021/06/22 00:10:48;;;;;;;5.13;4.43;;;16.50;99.90;;;;;;5125992;28;20179;-73
2021/06/22 00:13:14;;;;;;;6.33;4.73;;;16.20;99.90;;;;;;5140218;27;20179;-74
2021/06/22 00:15:39;;;;;;;6.73;5.40;;;16.20;99.90;;;;;;5130927;28;20552;-73
2021/06/22 00:18:06;;;;;;;7.27;5.87;;;16.30;99.90;;;;;;5114937;28;20433;-73
2021/06/22 00:20:31;;;;;;;7.82;6.30;;;16.40;99.90;;;;;;5116394;28;20411;-73
2021/06/22 00:22:57;;;;;;;7.03;5.77;;;16.60;99.90;;;;;;5116759;28;20186;-73
2021/06/22 00:25:25;;;;;;;8.90;6.67;;;16.70;99.90;;;;;;5115670;28;20192;-73
2021/06/22 00:27:51;;;;;;;8.10;5.43;;;16.40;99.90;;;;;;5115027;28;20741;-73
2021/06/22 00:30:17;;;;;;;9.13;5.70;;;16.20;99.90;;;;;;5115309;28;20414;-73
2021/06/22 00:32:43;;;;;;;6.60;5.30;;;16.20;99.90;;;;;;5116423;28;20480;-73
2021/06/22 00:35:10;;;;;;;8.50;7.00;;;16.30;99.90;;;;;;5116681;28;20510;-73
2021/06/22 00:37:36;;;;;;;10.70;7.67;;;16.00;99.90;;;;;;5116444;28;20487;-73
2021/06/22 00:40:02;;;;;;;8.50;6.63;;;16.10;99.90;;;;;;5097258;28;20452;-73
2021/06/22 00:42:28;;;;;;;8.83;6.63;;;15.90;99.90;;;;;;5096646;28;20410;-73
2021/06/22 00:44:58;;;;;;;7.53;6.57;;;15.80;99.90;;;;;;5096960;28;20791;-73
2021/06/22 00:47:24;;;;;;;11.30;8.47;;;15.90;99.90;;;;;;5095948;28;20154;-73
2021/06/22 00:49:50;;;;;;;11.03;7.20;;;16.00;99.90;;;;;;5096946;28;20464;-73
2021/06/22 00:52:20;;;;;;;10.80;6.63;;;15.90;99.90;;;;;;5095943;28;20860;-73
2021/06/22 00:54:45;;;;;;;8.50;6.97;;;16.00;99.90;;;;;;5096002;28;20164;-73
2021/06/22 00:57:11;;;;;;;9.40;6.70;;;16.00;99.90;;;;;;5095929;28;20540;-72
2021/06/22 00:59:37;;;;;;;10.00;7.53;;;16.00;99.90;;;;;;5095380;28;20220;-74
2021/06/22 01:02:03;;;;;;;8.23;6.40;;;15.80;99.90;;;;;;5095744;28;20219;-75
2021/06/22 01:04:29;;;;;;;6.33;5.57;;;15.80;99.90;;;;;;5095663;28;20161;-74
2021/06/22 01:06:56;;;;;;;7.47;5.50;;;15.80;99.90;;;;;;5096054;28;20430;-73
2021/06/22 01:09:22;;;;;;;6.70;5.85;;;15.80;99.90;;;;;;5096302;28;20460;-73
2021/06/22 01:11:47;;;;;;;6.43;5.10;;;15.80;99.90;;;;;;5112889;28;20606;-72
2021/06/22 01:14:13;;;;;;;8.23;5.00;;;15.80;99.90;;;;;;5115555;28;20559;-73
2021/06/22 01:16:39;;;;;;;9.70;4.80;;;15.70;99.90;;;;;;5114322;28;20192;-74
2021/06/22 01:19:07;;;;;;;6.03;5.30;;;15.70;99.90;;;;;;5115351;28;20323;-72
2021/06/22 01:21:34;;;;;;;6.03;4.70;;;15.70;99.90;;;;;;5106216;28;20526;-73
2021/06/22 01:24:11;;;;;;;6.50;5.23;;;15.70;99.90;;;;;;5094959;28;20898;-73
2021/06/22 01:26:42;;;;;;;6.10;5.50;;;15.60;99.90;;;;;;5095022;28;20422;-73
2021/06/22 01:29:08;;;;;;;7.27;6.10;;;15.80;99.90;;;;;;5094959;28;20427;-72
2021/06/22 01:31:35;;;;;;;6.83;6.20;;;15.80;99.90;;;;;;5096188;28;20423;-72
2021/06/22 01:34:01;;;;;;;6.47;5.53;;;15.80;99.90;;;;;;5095290;28;20403;-73
2021/06/22 01:36:29;;;;;;;6.77;6.07;;;15.90;99.90;;;;;;5094784;28;20514;-72
2021/06/22 01:38:54;;;;;;;7.73;6.60;;;16.00;99.90;;;;;;5096102;28;20481;-73
2021/06/22 01:41:20;;;;;;;7.30;5.77;;;15.90;99.90;;;;;;5095179;28;20537;-73
2021/06/22 01:43:45;;;;;;;8.00;6.53;;;15.90;99.90;;;;;;5095040;28;20172;-73
2021/06/22 01:46:11;;;;;;;8.67;6.70;;;15.90;99.90;;;;;;5095122;28;20193;-73
2021/06/22 01:48:37;;;;;;;6.93;6.10;;;15.80;99.90;;;;;;5094242;28;20285;-73
2021/06/22 01:51:03;;;;;;;8.10;6.00;;;15.60;99.90;;;;;;5094944;28;20512;-73
2021/06/22 01:53:29;;;;;;;11.97;7.70;;;15.60;99.90;;;;;;5094428;28;20703;-73
2021/06/22 01:55:54;;;;;;;9.70;7.50;;;15.70;99.90;;;;;;5093155;28;20196;-73
2021/06/22 01:58:21;;;;;;;10.30;7.43;;;15.60;99.90;;;;;;5094511;28;20300;-73
2021/06/22 02:00:50;;;;;;;11.20;7.80;;;15.70;99.90;;;;;;5101454;28;20188;-72
2021/06/22 02:03:19;;;;;;;10.83;8.50;;;15.70;99.90;;;;;;5114389;28;20394;-72
2021/06/22 02:05:46;;;;;;;8.80;7.63;;;15.70;99.90;;;;;;5114564;28;20426;-73
2021/06/22 02:08:12;;;;;;;10.53;8.40;;;15.70;99.90;;;;;;5114690;28;20471;-72
2021/06/22 02:10:37;;;;;;;8.20;7.40;;;15.80;99.90;;;;;;5117344;28;20421;-73
2021/06/22 02:13:04;;;;;;;12.83;8.20;;;15.90;99.90;;;;;;5101495;28;20484;-73
2021/06/22 02:15:30;;;;;;;8.90;7.67;;;16.00;99.90;;;;;;5098644;28;20196;-73
2021/06/22 02:17:55;;;;;;;9.63;8.13;;;15.90;99.90;;;;;;5093982;28;20450;-73
2021/06/22 02:20:21;;;;;;;8.93;7.70;;;16.00;99.90;;;;;;5094077;28;20195;-73
2021/06/22 02:22:47;;;;;;;10.87;8.07;;;16.00;99.90;;;;;;5094498;28;20201;-73
2021/06/22 02:25:14;;;;;;;10.13;7.37;;;16.10;99.90;;;;;;5093468;28;20181;-72
2021/06/22 02:27:40;;;;;;;7.00;6.30;;;16.10;99.90;;;;;;5094033;28;20447;-72
2021/06/22 02:30:09;;;;;;;9.03;7.03;;;16.00;99.90;;;;;;5092774;28;20419;-73
2021/06/22 02:32:36;;;;;;;8.83;6.63;;;15.90;99.90;;;;;;5094584;28;20498;-73
2021/06/22 02:35:02;;;;;;;7.90;6.40;;;15.70;99.90;;;;;;5092262;28;20540;-73
2021/06/22 02:37:27;;;;;;;7.37;5.87;;;15.60;99.90;;;;;;5093786;28;20907;-72
2021/06/22 02:39:53;;;;;;;6.30;5.70;;;15.70;99.90;;;;;;5094366;28;20454;-73
2021/06/22 02:42:19;;;;;;;8.20;5.90;;;15.80;99.90;;;;;;5094768;28;20172;-73
2021/06/22 02:44:44;;;;;;;8.77;6.27;;;15.90;99.90;;;;;;5095582;28;20185;-73
2021/06/22 02:47:10;;;;;;;9.13;6.90;;;16.00;99.90;;;;;;5094514;28;20173;-73
2021/06/22 02:49:35;;;;;;;8.87;6.87;;;16.10;99.90;;;;;;5094299;28;20191;-74
2021/06/22 02:52:02;;;;;;;10.80;6.20;;;16.00;99.90;;;;;;5096299;28;20237;-73
2021/06/22 02:54:27;;;;;;;9.30;5.97;;;15.90;99.90;;;;;;5113935;28;20173;-74
2021/06/22 02:56:53;;;;;;;8.70;6.40;;;15.90;99.90;;;;;;5114408;28;20440;-74
2021/06/22 02:59:19;;;;;;;8.73;6.20;;;15.90;99.90;;;;;;5114034;28;20558;-73
2021/06/22 03:01:44;;;;;;;10.93;6.93;;;15.60;99.90;;;;;;5113902;28;20172;-73
2021/06/22 03:04:10;;;;;;;15.20;9.50;;;15.40;99.90;;;;;;5111839;28;20176;-73
2021/06/22 03:06:35;;;;;;;12.97;10.43;;;15.30;99.90;;;;;;5113933;28;20188;-73
2021/06/22 03:09:02;;;;;;;15.07;12.97;;;15.40;99.90;;;;;;5113545;28;20177;-73
2021/06/22 03:11:28;;;;;;;15.63;11.27;;;15.30;99.90;;;;;;5113946;28;20176;-73
2021/06/22 03:13:53;;;;;;;16.17;11.20;;;14.90;99.90;;;;;;5111543;28;20469;-72
2021/06/22 03:16:19;;;;;;;15.27;11.27;;;14.80;99.90;;;;;;5113625;28;20904;-73
2021/06/22 03:18:44;;;;;;;13.97;9.93;;;14.90;99.90;;;;;;5111350;28;20287;-72
2021/06/22 03:21:11;;;;;;;14.23;9.73;;;15.00;99.90;;;;;;5113490;28;20180;-72
2021/06/22 03:23:37;;;;;;;12.43;9.90;;;15.10;99.90;;;;;;5113465;28;20552;-72
2021/06/22 03:26:02;;;;;;;11.43;8.90;;;15.10;99.90;;;;;;5111615;28;20434;-72
2021/06/22 03:28:28;;;;;;;12.98;10.43;;;15.10;99.90;;;;;;5113380;28;20399;-72
2021/06/22 03:30:53;;;;;;;12.80;8.90;;;14.80;99.90;;;;;;5114005;28;20171;-72
2021/06/22 03:33:19;;;;;;;10.33;9.00;;;14.60;99.90;;;;;;5113715;28;20203;-72
2021/06/22 03:35:45;;;;;;;10.93;8.80;;;14.70;99.90;;;;;;5113564;28;20432;-73
2021/06/22 03:38:10;;;;;;;11.57;8.50;;;14.60;99.90;;;;;;5117282;28;20449;-73
2021/06/22 03:40:36;;;;;;;13.10;9.17;;;14.70;99.90;;;;;;5110184;28;20534;-73
2021/06/22 03:43:04;;;;;;;10.80;8.50;;;14.90;99.90;;;;;;5097235;28;20395;-73
2021/06/22 03:45:30;;;;;;;11.20;9.00;;;15.10;99.90;;;;;;5098450;28;20192;-73
2021/06/22 03:47:56;;;;;;;12.10;9.70;;;15.20;99.90;;;;;;5097261;28;20422;-73
2021/06/22 03:50:21;;;;;;;11.33;8.87;;;15.30;99.90;;;;;;5097377;28;20627;-73
2021/06/22 03:52:47;;;;;;;12.70;8.83;;;15.40;99.90;;;;;;5108264;28;20146;-74
2021/06/22 03:55:28;;;;;;;10.00;8.97;;;15.40;99.90;;;;;;5121955;28;20203;-73
2021/06/22 03:57:57;;;;;;;15.07;10.50;;;15.10;99.90;;;;;;5115043;28;20671;-73
2021/06/22 04:00:23;;;;;;;13.30;10.67;;;15.10;99.90;;;;;;5115589;28;20790;-73
2021/06/22 04:02:49;;;;;;;12.23;9.50;;;14.90;99.90;;;;;;5117145;28;20428;-73
2021/06/22 04:05:15;;;;;;;9.17;8.23;;;14.90;99.90;;;;;;5117321;28;20428;-74
2021/06/22 04:07:41;;;;;;;10.27;9.20;;;14.90;99.90;;;;;;5115421;28;20176;-72
2021/06/22 04:10:07;;;;;;;9.13;7.57;;;15.00;99.90;;;;;;5116890;28;20183;-72
2021/06/22 04:12:33;;;;;;;9.77;8.23;;;15.10;99.90;;;;;;5116616;28;20418;-73
2021/06/22 04:14:59;;;;;;;10.33;8.43;;;15.00;99.90;;;;;;5116781;28;20431;-73
2021/06/22 04:17:27;;;;;;;10.07;8.93;;;15.10;99.90;;;;;;5117171;28;20173;-73
2021/06/22 04:19:52;;;;;;;10.40;8.43;;;15.20;99.90;;;;;;5119970;28;20233;-72
2021/06/22 04:22:18;;;;;;;10.87;8.23;;;15.30;99.90;;;;;;5117113;28;20870;-73
2021/06/22 04:24:44;;;;;;;7.97;7.17;;;15.40;99.90;;;;;;5116842;28;20259;-73
2021/06/22 04:27:09;;;;;;;9.20;6.87;;;15.60;99.90;;;;;;5116449;28;20172;-73
2021/06/22 04:29:35;;;;;;;6.40;5.53;;;15.60;99.90;;;;;;5115156;28;20188;-73
2021/06/22 04:32:01;;;;;;;5.77;5.17;;;15.70;99.90;;;;;;5116794;27;20221;-72
2021/06/22 04:34:26;;;;;;;6.27;5.10;;;15.80;99.90;;;;;;5115329;28;20245;-74
2021/06/22 04:36:52;;;;;;;5.53;5.03;;;15.80;99.90;;;;;;5116650;28;20287;-73
2021/06/22 04:39:18;;;;;;;6.00;5.20;;;15.80;99.90;;;;;;5108803;28;20193;-73
2021/06/22 04:41:44;;;;;;;7.37;5.47;;;15.70;99.90;;;;;;5095293;28;20233;-72
2021/06/22 04:44:09;;;;;;;9.73;4.20;;;15.60;99.90;;;;;;5096069;28;20502;-73
2021/06/22 04:46:35;;;;;;;7.10;4.40;;;15.60;99.90;;;;;;5095582;28;20192;-74
2021/06/22 04:49:00;;;;;;;5.87;5.27;;;15.70;99.90;;;;;;5096096;28;20683;-74
2021/06/22 04:51:26;;;;;;;6.20;4.37;;;15.80;99.90;;;;;;5095854;28;20196;-73
2021/06/22 04:53:52;;;;;;;8.87;5.20;;;15.70;99.90;;;;;;5094473;28;20224;-74
2021/06/22 04:56:24;;;;;;;6.23;4.97;;;15.70;99.90;;;;;;5098604;28;20290;-73
2021/06/22 04:58:55;;;;;;;4.80;4.10;;;15.70;99.90;;;;;;5101916;28;20221;-73
2021/06/22 05:01:21;;;;;;;5.73;4.30;;;15.80;99.90;;;;;;5103815;28;20442;-73
2021/06/22 05:03:46;;;;;;;9.70;4.90;;;15.90;99.90;;;;;;5102555;28;20872;-73
2021/06/22 05:06:12;;;;;;;8.27;5.10;;;16.00;99.90;;;;;;5095967;28;20429;-74
2021/06/22 05:08:38;;;;;;;10.47;5.10;;;15.90;99.90;;;;;;5101973;28;20584;-74
2021/06/22 05:11:07;;;;;;;8.30;5.33;;;15.90;99.90;;;;;;5106546;28;20560;-74
2021/06/22 05:13:33;;;;;;;8.30;5.00;;;15.70;99.90;;;;;;5095330;28;20413;-74
2021/06/22 05:15:58;;;;;;;7.90;4.87;;;15.80;99.90;;;;;;5095522;28;20427;-72
2021/06/22 05:18:24;;;;;;;9.73;4.70;;;15.80;99.90;;;;;;5108397;28;20460;-73
2021/06/22 05:20:50;;;;;;;7.10;4.53;;;15.80;99.90;;;;;;5098389;28;20262;-73
2021/06/22 05:23:16;;;;;;;8.43;5.30;;;16.00;99.90;;;;;;5097740;28;20423;-73
2021/06/22 05:25:43;;;;;;;5.37;4.57;;;15.90;99.90;;;;;;5095502;28;20298;-74
2021/06/22 05:28:09;;;;;;;12.50;4.70;;;15.80;99.90;;;;;;5093789;28;20445;-73
2021/06/22 05:30:35;;;;;;;5.80;4.73;;;15.90;99.90;;;;;;5106829;28;20457;-73
2021/06/22 05:33:00;;;;;;;6.10;5.13;;;15.90;99.90;;;;;;5102864;28;20456;-74
2021/06/22 05:35:26;;;;;;;7.43;4.90;;;15.90;99.90;;;;;;5105030;28;20857;-73
2021/06/22 05:37:52;;;;;;;9.50;5.67;;;15.80;99.90;;;;;;5096225;28;20275;-73
2021/06/22 05:40:17;;;;;;;28.83;7.57;;;15.70;99.90;;;;;;5106676;28;20263;-74
2021/06/22 05:42:43;;;;;;;6.33;4.80;;;15.80;99.90;;;;;;5113973;28;20160;-73
2021/06/22 05:45:09;;;;;;;8.27;4.67;;;15.90;99.90;;;;;;5115653;28;20196;-73
2021/06/22 05:47:34;;;;;;;6.80;5.00;;;15.70;99.90;;;;;;5117265;28;20183;-74
2021/06/22 05:50:00;;;;;;;6.30;4.47;;;15.60;99.90;;;;;;5112359;28;20176;-72
2021/06/22 05:52:26;;;;;;;10.73;5.77;;;15.70;99.90;;;;;;5098151;28;20197;-73
2021/06/22 05:54:51;;;;;;;6.10;5.50;;;15.70;99.90;;;;;;5096807;28;20455;-74
2021/06/22 05:57:17;;;;;;;11.73;5.03;;;15.80;99.90;;;;;;5096703;28;20720;-73
2021/06/22 05:59:43;;;;;;;7.57;6.10;;;15.80;99.90;;;;;;5094342;28;20196;-74
2021/06/22 06:02:08;;;;;;;8.50;5.37;;;15.80;99.90;;;;;;5107218;28;20205;-74
2021/06/22 06:04:34;;;;;;;7.60;5.27;;;15.80;99.90;;;;;;5094576;28;20176;-74
2021/06/22 06:07:00;;;;;;;12.23;6.25;;;15.90;99.90;;;;;;5110681;27;20952;-74
2021/06/22 06:09:26;;;;;;;9.90;6.00;;;16.00;99.90;;;;;;5107838;28;20688;-73
2021/06/22 06:11:53;;;;;;;7.00;5.27;;;16.10;99.90;;;;;;5108524;28;20200;-73
2021/06/22 06:14:18;;;;;;;6.63;6.00;;;16.00;99.90;;;;;;5091481;28;20418;-73
2021/06/22 06:16:44;;;;;;;7.10;5.90;;;15.90;99.90;;;;;;5096668;28;20436;-73
2021/06/22 06:19:10;;;;;;;9.20;6.87;;;15.80;99.90;;;;;;5097093;28;20192;-75
2021/06/22 06:21:39;;;;;;;11.67;7.00;;;15.70;99.90;;;;;;5098697;28;20179;-74
2021/06/22 06:24:05;;;;;;;11.53;8.10;;;15.50;99.90;;;;;;5106509;28;20168;-74
2021/06/22 06:26:36;;;;;;;9.20;7.30;;;15.50;99.90;;;;;;5111050;28;20434;-74
2021/06/22 06:29:14;;;;;;;16.00;8.10;;;15.60;99.90;;;;;;5111327;28;20421;-74
2021/06/22 06:31:40;;;;;;;10.07;7.37;;;15.50;99.90;;;;;;5111820;28;20488;-74
2021/06/22 06:34:05;;;;;;;9.70;7.13;;;15.50;99.90;;;;;;5112174;28;20490;-74
2021/06/22 06:36:31;;;;;;;10.13;6.27;;;15.60;99.90;;;;;;5112330;28;20211;-73
2021/06/22 06:38:56;;;;;;;7.97;6.20;;;15.70;99.90;;;;;;5099648;28;20196;-73
2021/06/22 06:41:22;;;;;;;8.23;6.33;;;15.90;99.90;;;;;;5104607;28;20184;-73
2021/06/22 06:43:48;;;;;;;8.80;7.10;;;15.80;99.90;;;;;;5097043;28;20232;-76
2021/06/22 06:46:13;;;;;;;10.93;6.47;;;15.70;99.90;;;;;;5091289;28;20296;-73
2021/06/22 06:48:41;;;;;;;10.73;6.40;;;15.70;99.90;;;;;;5110586;28;20179;-73
2021/06/22 06:51:06;;;;;;;7.07;6.23;;;15.70;99.90;;;;;;5111946;28;20184;-73
2021/06/22 06:53:32;;;;;;;7.40;6.70;;;15.80;99.90;;;;;;5109686;28;20429;-74
2021/06/22 06:55:57;;;;;;;9.43;7.00;;;15.90;99.90;;;;;;5096703;28;20312;-73
2021/06/22 06:58:23;;;;;;;7.53;6.40;;;16.10;99.90;;;;;;5109069;28;20208;-74
2021/06/22 07:00:48;;;;;;;9.90;6.60;;;16.10;99.90;;;;;;5112599;28;20183;-74
2021/06/22 07:03:15;;;;;;;10.33;6.40;;;16.20;99.90;;;;;;5112547;28;20179;-75
2021/06/22 07:05:41;;;;;;;9.93;7.43;;;16.20;99.90;;;;;;5116623;28;20204;-74
2021/06/22 07:08:07;;;;;;;8.10;6.43;;;16.10;99.90;;;;;;5119331;28;20459;-75
2021/06/22 07:10:33;;;;;;;7.63;6.40;;;16.10;99.90;;;;;;5110910;28;20211;-74
2021/06/22 07:13:02;;;;;;;7.60;6.87;;;16.20;99.90;;;;;;5111048;28;20493;-74
2021/06/22 07:15:28;;;;;;;8.17;6.43;;;16.00;99.90;;;;;;5108618;28;20554;-74
2021/06/22 07:17:54;;;;;;;8.40;6.33;;;16.00;99.90;;;;;;5110693;28;20516;-74
2021/06/22 07:20:19;;;;;;;9.50;6.53;;;16.10;99.90;;;;;;5109964;28;20228;-74
2021/06/22 07:22:45;;;;;;;9.70;7.10;;;16.20;99.90;;;;;;5097073;28;20192;-74
2021/06/22 07:25:11;;;;;;;9.27;7.40;;;16.10;99.90;;;;;;5097519;28;20200;-73
2021/06/22 07:27:37;;;;;;;9.33;7.20;;;16.00;99.90;;;;;;5094178;28;20641;-74
2021/06/22 07:30:03;;;;;;;10.20;6.80;;;15.80;99.90;;;;;;5094964;28;20177;-73
2021/06/22 07:32:29;;;;;;;8.27;7.00;;;15.70;99.90;;;;;;5112914;28;20221;-73
2021/06/22 07:34:55;;;;;;;9.40;6.87;;;15.80;99.90;;;;;;5111098;28;20504;-73
2021/06/22 07:37:20;;;;;;;10.70;6.70;;;15.80;99.90;;;;;;5110878;28;20472;-74
2021/06/22 07:39:46;;;;;;;6.90;6.20;;;15.90;99.90;;;;;;5099380;28;20269;-74
2021/06/22 07:42:11;;;;;;;8.90;7.40;;;16.00;99.90;;;;;;5109198;28;20177;-73
2021/06/22 07:44:37;;;;;;;11.43;6.70;;;16.20;99.90;;;;;;5112864;28;20180;-73
2021/06/22 07:47:03;;;;;;;18.83;9.20;;;16.30;99.90;;;;;;5104359;28;20423;-73
2021/06/22 07:49:28;;;;;;;14.73;8.50;;;16.30;99.90;;;;;;5102325;28;20786;-73
2021/06/22 07:51:55;;;;;;;10.83;7.43;;;16.20;99.90;;;;;;5098682;28;20515;-73
2021/06/22 07:54:20;;;;;;;8.50;7.20;;;16.20;99.90;;;;;;5108966;28;20225;-73
2021/06/22 07:56:46;;;;;;;11.67;7.50;;;16.00;99.90;;;;;;5109115;28;20458;-73
2021/06/22 07:59:11;;;;;;;9.03;7.60;;;16.10;99.90;;;;;;5111411;28;20215;-73
2021/06/22 08:01:37;;;;;;;10.33;6.90;;;16.10;99.90;;;;;;5099468;28;20181;-74
2021/06/22 08:04:03;;;;;;;13.17;7.07;;;16.20;99.90;;;;;;5105107;28;20638;-74
2021/06/22 08:06:30;;;;;;;12.80;7.30;;;16.30;99.90;;;;;;5108850;28;20207;-72
2021/06/22 08:08:56;;;;;;;11.97;7.60;;;16.40;99.90;;;;;;5092021;28;20696;-74
2021/06/22 08:11:22;;;;;;;10.53;7.80;;;16.50;99.90;;;;;;5099957;28;20414;-75
2021/06/22 08:13:47;;;;;;;12.43;7.90;;;16.60;99.90;;;;;;5109782;28;20233;-73
2021/06/22 08:16:13;;;;;;;9.07;6.90;;;16.60;99.90;;;;;;5110521;28;20697;-73
2021/06/22 08:18:38;;;;;;;7.00;6.30;;;16.70;99.90;;;;;;5103326;28;20193;-74
2021/06/22 08:21:04;;;;;;;7.83;6.57;;;16.80;99.90;;;;;;5090387;28;20172;-73
2021/06/22 08:23:30;;;;;;;11.10;7.10;;;16.90;99.90;;;;;;5094545;28;20284;-72
2021/06/22 08:25:55;;;;;;;8.60;7.70;;;16.90;99.90;;;;;;5093065;28;20846;-72
2021/06/22 08:28:23;;;;;;;10.27;7.10;;;16.70;99.90;;;;;;5095390;28;20165;-73
2021/06/22 08:30:49;;;;;;;8.85;7.85;;;16.80;99.90;;;;;;5115235;28;20498;-73
2021/06/22 08:33:15;;;;;;;9.97;7.00;;;16.90;99.90;;;;;;5118863;28;20678;-72
2021/06/22 08:35:41;;;;;;;10.37;7.60;;;16.90;99.90;;;;;;5117688;28;20430;-72
2021/06/22 08:38:09;;;;;;;10.80;7.80;;;17.00;99.90;;;;;;5117339;28;20397;-72
2021/06/22 08:40:39;;;;;;;10.97;7.40;;;17.00;99.90;;;;;;5117643;28;20476;-73
2021/06/22 08:43:06;;;;;;;8.80;7.40;;;16.80;99.90;;;;;;5116640;28;20406;-73
2021/06/22 08:45:32;;;;;;;10.20;8.07;;;16.90;99.90;;;;;;5117513;28;20466;-73
2021/06/22 08:47:57;;;;;;;18.37;8.67;;;17.10;99.90;;;;;;5117770;28;20443;-73
2021/06/22 08:50:23;;;;;;;9.03;7.97;;;17.40;99.90;;;;;;5115814;28;20229;-73
2021/06/22 08:52:49;;;;;;;11.07;8.63;;;17.60;99.90;;;;;;5117592;28;20168;-73
2021/06/22 08:55:26;;;;;;;11.23;8.37;;;17.60;99.90;;;;;;5117497;28;20196;-73
2021/06/22 08:57:54;;;;;;;10.03;8.67;;;17.80;99.90;;;;;;5117049;28;20214;-73
2021/06/22 09:00:20;;;;;;;10.63;7.13;;;17.70;99.90;;;;;;5116924;28;20422;-73
2021/06/22 09:02:55;;;;;;;9.67;7.20;;;17.70;99.90;;;;;;5115712;28;20421;-73
2021/06/22 09:05:23;;;;;;;8.17;7.23;;;17.90;99.90;;;;;;5117218;28;20426;-71
2021/06/22 09:07:51;;;;;;;8.47;7.03;;;18.10;99.90;;;;;;5118350;28;20979;-72
2021/06/22 09:10:33;;;;;;;9.97;7.90;;;18.10;99.90;;;;;;5119624;28;20425;-73
2021/06/22 09:13:16;;;;;;;8.30;7.47;;;18.00;99.90;;;;;;5106986;28;20415;-73
2021/06/22 09:15:44;;;;;;;10.13;7.90;;;18.20;99.90;;;;;;5103243;28;20443;-73
2021/06/22 09:18:26;;;;;;;12.48;8.90;;;18.40;99.90;;;;;;5097286;28;21029;-73
2021/06/22 09:20:53;;;;;;;9.53;7.97;;;18.70;99.90;;;;;;5097452;28;20244;-73
2021/06/22 09:23:22;;;;;;;8.70;7.00;;;18.60;99.90;;;;;;5109660;28;20414;-73
2021/06/22 09:25:51;;;;;;;8.23;7.10;;;18.80;99.90;;;;;;5116761;28;20414;-73
2021/06/22 09:28:21;;;;;;;6.47;5.90;;;18.50;99.90;;;;;;5117140;28;20440;-73
2021/06/22 09:30:50;;;;;;;23.27;7.43;;;18.60;99.90;;;;;;5116681;28;20456;-72
2021/06/22 09:33:22;;;;;;;13.83;6.27;;;18.90;99.90;;;;;;5117537;28;20463;-73
2021/06/22 09:35:55;;;;;;;7.60;6.43;;;19.20;99.50;;;;;;5118859;28;20430;-74
2021/06/22 09:38:21;;;;;;;7.90;6.13;;;19.30;98.90;;;;;;5118216;28;20537;-73
2021/06/22 09:40:46;;;;;;;7.23;5.53;;;19.30;99.00;;;;;;5112287;28;20454;-73
2021/06/22 09:43:12;;;;;;;7.00;6.17;;;19.50;99.00;;;;;;5118925;28;20176;-73
2021/06/22 09:45:38;;;;;;;7.73;5.80;;;19.60;98.80;;;;;;5116407;28;20219;-72
2021/06/22 09:48:05;;;;;;;6.30;4.40;;;19.50;98.40;;;;;;5117008;28;20164;-74
2021/06/22 09:50:44;;;;;;;8.43;5.00;;;19.40;98.60;;;;;;5116834;28;20164;-73
2021/06/22 09:53:30;;;;;;;7.50;5.10;;;19.30;98.30;;;;;;5117152;28;20387;-73
2021/06/22 09:55:57;;;;;;;6.90;5.10;;;19.20;98.30;;;;;;5116369;28;20942;-72
2021/06/22 09:58:36;;;;;;;13.13;5.50;;;19.30;98.40;;;;;;5116583;28;20568;-72
2021/06/22 10:01:03;;;;;;;9.00;5.10;;;19.20;98.20;;;;;;5118443;28;20418;-73
2021/06/22 10:03:36;;;;;;;4.97;4.20;;;19.10;98.40;;;;;;5118341;28;20413;-72
2021/06/22 10:06:09;;;;;;;6.50;5.40;;;19.10;98.50;;;;;;5116893;28;20441;-72
2021/06/22 10:08:57;;;;;;;6.50;5.20;;;19.20;98.50;;;;;;5115635;28;20597;-71
2021/06/22 10:11:42;;;;;;;6.70;4.77;;;19.20;98.40;;;;;;5110862;28;20472;-73
2021/06/22 10:14:10;;;;;;;8.10;4.83;;;19.10;98.60;;;;;;5095426;28;20514;-72
2021/06/22 10:16:37;;;;;;;10.97;5.80;;;19.00;98.60;;;;;;5097941;28;20439;-72
2021/06/22 10:19:07;;;;;;;5.60;5.03;;;19.00;98.50;;;;;;5102797;28;20447;-73
2021/06/22 10:21:34;;;;;;;6.27;5.03;;;19.00;98.80;;;;;;5102288;28;20426;-72
2021/06/22 10:24:01;;;;;;;7.53;4.80;;;19.20;98.80;;;;;;5093704;28;20469;-73
2021/06/22 10:26:29;;;;;;;5.30;4.80;;;19.30;98.70;;;;;;5094847;28;20429;-74
2021/06/22 10:28:59;;;;;;;7.40;5.50;;;19.30;98.30;;;;;;5095422;28;20447;-72
2021/06/22 10:31:25;;;;;;;5.90;5.40;;;19.50;98.10;;;;;;5094737;28;20922;-72
2021/06/22 10:33:51;;;;;;;7.13;5.67;;;19.50;98.00;;;;;;5095249;28;20415;-72
2021/06/22 10:36:25;;;;;;;14.30;6.43;;;19.30;98.40;;;;;;5094443;28;20966;-73
2021/06/22 10:38:54;;;;;;;7.00;6.00;;;18.90;98.60;;;;;;5097605;28;20583;-72
2021/06/22 10:41:21;;;;;;;6.80;5.30;;;18.60;99.20;;;;;;5099123;28;20403;-72
2021/06/22 10:43:47;;;;;;;6.83;6.13;;;18.60;99.80;;;;;;5112305;28;20482;-72
2021/06/22 10:46:18;;;;;;;9.67;5.97;;;18.70;99.50;;;;;;5119640;28;20803;-72
2021/06/22 10:48:48;;;;;;;7.23;6.13;;;18.80;99.50;;;;;;5116337;28;20421;-72
2021/06/22 10:51:51;;;;;;;8.03;6.10;;;18.90;99.40;;;;;;5113989;28;20410;-73
2021/06/22 10:54:50;;;;;;;10.67;7.20;;;18.90;99.40;;;;;;5022767;28;20427;-73
2021/06/22 10:57:16;;;;;;;15.87;7.37;;;18.50;99.90;;;;;;5012368;28;20533;-73
2021/06/22 10:59:58;;;;;;;9.10;7.07;;;18.40;99.90;;;;;;5012122;28;20604;-72
2021/06/22 11:02:24;;;;;;;10.73;6.43;;;18.30;99.90;;;;;;4996330;28;20175;-73
2021/06/22 11:05:17;;;;;;;7.57;6.87;;;18.50;99.90;;;;;;5021196;28;20433;-73
2021/06/22 11:07:42;;;;;;;8.07;6.80;;;18.60;99.90;;;;;;5012487;28;20172;-73
2021/06/22 11:10:11;;;;;;;11.27;7.30;;;18.40;99.90;;;;;;5012362;28;20410;-72
2021/06/22 11:12:47;;;;;;;9.57;6.43;;;18.10;99.90;;;;;;5012293;28;20249;-71
2021/06/22 11:15:12;;;;;;;7.83;7.10;;;18.10;99.90;;;;;;5012877;28;20458;-72
2021/06/22 11:17:41;;;;;;;7.10;6.20;;;18.20;99.90;;;;;;5013221;28;20414;-73
2021/06/22 11:20:14;;;;;;;7.33;6.53;;;18.50;99.90;;;;;;5012640;28;20206;-72
2021/06/22 11:23:05;;;;;;;9.47;7.50;;;18.70;99.90;;;;;;5012910;28;20418;-73
2021/06/22 11:25:48;;;;;;;10.10;6.93;;;18.70;99.60;;;;;;5070147;28;20464;-73
2021/06/22 11:28:13;;;;;;;8.60;6.60;;;18.50;99.90;;;;;;5095496;28;20559;-73
2021/06/22 11:31:01;;;;;;;10.33;6.73;;;18.60;99.90;;;;;;5094721;28;20432;-73
2021/06/22 11:33:46;;;;;;;11.47;7.83;;;18.70;99.70;;;;;;5094744;28;20541;-72
2021/06/22 11:36:18;;;;;;;6.93;6.33;;;18.80;99.60;;;;;;5097986;28;20429;-72
2021/06/22 11:39:06;;;;;;;7.20;6.10;;;18.90;99.50;;;;;;5114904;28;20453;-73
2021/06/22 11:41:32;;;;;;;6.13;5.50;;;19.10;99.30;;;;;;5115293;28;20406;-73
2021/06/22 11:44:09;;;;;;;7.90;7.10;;;19.30;99.10;;;;;;5114076;28;20417;-72
2021/06/22 11:46:43;;;;;;;7.97;6.70;;;19.60;98.80;;;;;;5112067;28;20417;-72
2021/06/22 11:49:08;;;;;;;7.73;7.03;;;19.50;98.40;;;;;;5114365;28;20424;-72
2021/06/22 11:51:52;;;;;;;17.00;8.90;;;19.50;98.30;;;;;;5114617;28;20409;-72
2021/06/22 11:54:39;;;;;;;10.70;7.73;;;19.50;98.20;;;;;;5114649;28;20188;-72
2021/06/22 11:57:12;;;;;;;8.43;6.70;;;19.30;98.20;;;;;;5106449;28;20450;-72
2021/06/22 11:59:38;;;;;;;8.43;7.63;;;19.60;98.20;;;;;;5116074;28;20466;-74
2021/06/22 12:02:07;;;;;;;9.83;6.93;;;19.60;98.00;;;;;;5118118;28;20479;-73
2021/06/22 12:04:32;;;;;;;8.80;7.57;;;19.40;98.10;;;;;;5118387;28;20536;-73
2021/06/22 12:06:59;;;;;;;7.93;7.20;;;19.30;98.10;;;;;;5129745;28;20417;-73
2021/06/22 12:09:24;;;;;;;11.30;8.27;;;19.20;98.30;;;;;;5136818;28;20180;-72
2021/06/22 12:11:50;;;;;;;10.90;8.27;;;19.20;98.40;;;;;;5134323;28;20577;-73
2021/06/22 12:14:17;;;;;;;9.63;8.57;;;18.90;98.60;;;;;;5122247;28;20176;-73
2021/06/22 12:16:48;;;;;;;10.07;8.37;;;18.90;98.70;;;;;;5129825;28;20446;-73
2021/06/22 12:19:17;;;;;;;11.00;7.67;;;19.00;99.00;;;;;;5115689;28;20447;-73
2021/06/22 12:21:46;;;;;;;8.13;7.30;;;19.20;99.00;;;;;;5104955;28;20451;-73
2021/06/22 12:24:15;;;;;;;9.63;7.10;;;19.20;98.80;;;;;;5097410;28;20463;-73
2021/06/22 12:26:42;;;;;;;7.77;6.97;;;19.40;98.60;;;;;;5097766;28;20426;-74
2021/06/22 12:29:29;;;;;;;7.67;6.97;;;19.60;98.30;;;;;;5097154;28;20430;-72
2021/06/22 12:31:56;;;;;;;8.77;7.10;;;19.70;98.20;;;;;;5097013;28;20440;-72
2021/06/22 12:34:28;;;;;;;8.27;6.40;;;19.90;98.00;;;;;;5097283;28;20499;-71
2021/06/22 12:36:54;;;;;;;8.43;6.10;;;20.00;97.50;;;;;;5097455;28;20476;-74
2021/06/22 12:39:21;;;;;;;7.43;6.80;;;20.00;97.40;;;;;;5098484;28;20968;-74
2021/06/22 12:41:47;;;;;;;8.97;6.60;;;20.00;97.30;;;;;;5097795;28;20455;-73
2021/06/22 12:44:13;;;;;;;11.50;7.23;;;20.10;97.30;;;;;;5097192;28;20768;-72
2021/06/22 12:46:42;;;;;;;8.13;7.40;;;20.10;97.30;;;;;;5095639;28;20447;-72